East Port Orchard, Washington
Current Conditions -  °F | °C
As of 2:55 PM on Tuesday 21 Oct 2014 (Local Time) from KPWT Reporting Station
Overcast Overcast  
Wind Chill: 57°   Ceiling: 6000
Heat Index: 57°   Visibility: 10mi
Dew Point: 54°   Wind: 17mph
Humidity: 88%   Direction: 180°S
Pressure: 29.9"   Gusts: 23mph
Location:  47.5378°N, 122.589°W
Report Text: KPWT 212155Z AUTO 18015G20KT 10SM SCT048 OVC060 14/12 A2990 RMK AO1
Loading
Personal Weather Stations






























Interactive Weather Map
Tropical Storm Tracking
New forecast layout! Learn more

10-Day Weather Forecast

Advertisements
Track Severe Weather on mobile